首页
METAR-TAF:

METAR-TAF

机场 :

Greenwood, 密西西比州, 美国

纬度: 33-29-33N, 经度: 090-05-01W, 海拔: 47米

当前天气观测

该预报发布于47分钟前的21:53 UTC
风速5节,风向北转东北
温度 6°C
湿度 81%
气压 1023 hPa
能見度: 16.1公里
阴天层高于8000英尺
小雨

METAR: KGWO 022153Z AUTO 02005KT 10SM -RA OVC080 06/03 A3020 RMK AO2 SLP226 P0005 T00610033

时间: 16:40 (22:40 UTC)

预报

该预报发布于5小时和20分钟前的17:20 UTC
预报有效从02日的 18点(UTC)到 03日的 18点(UTC)
风速9节,风向北转东北
能見度: 10公里
阴天层高于6000英尺
阵雨
从 02日的 2100点(UTC)
风速6节,风向
能見度: 3.2公里
散云层高于1500英尺
阴天层高于2500英尺
小雨, 轻雾
从 03日的 0100点(UTC)
风速5节,风向
能見度: 6.4公里
多云层高于2500英尺
小雨, 轻雾
从 03日的 0200点(UTC)
风速5节,风向
能見度: 10公里
多云层高于3500英尺
从 03日的 0700点(UTC)
风速3节,风向多变
能見度: 10公里
散云层高于1500英尺

TAF: KGWO 021720Z 0218/0318 03009KT P6SM SHRA OVC060 FM022100 01006KT 2SM -RA BR SCT015 OVC025 FM030100 01005KT 4SM -RA BR BKN025 FM030200 01005KT P6SM BKN035 FM030700 VRB03KT P6SM SCT015

超过4000个机场的气象观测和天气预报(METAR&TAF报告)。

可查询的气象台以黄色和红色小点在地图上表示。

将鼠标移到小点上方,可查看气象台名称。

然后点击查看天气观测和预报。

如需切换地图:点击带黑十字的绿色按钮放大地图;点击带横线的绿色按钮缩小地图;或者点击绿色箭头查看邻近地区的地图。


METAR-TAF: